Auance, South Dakota
Current Conditions -  °F | °C
As of 6:55 AM on Monday 22 Dec 2014 (Local Time) from KPHP Reporting Station
Few Clouds Few Clouds  
Wind Chill: 30°   Ceiling: Unl
Heat Index: 39°   Visibility: 10mi
Dew Point: 30°   Wind: 18mph
Humidity: 70%   Direction: 290°WNW
Pressure: 29.52"   Gusts: NA
Location:  44.8511°N, 102.128°W
Report Text: KPHP 221355Z AUTO 29016KT 10SM FEW120 04/M01 A2952 RMK AO2 SLP004 T00391011
Loading
Personal Weather Stations






























Interactive Weather Map New forecast layout! Learn more

10-Day Weather Forecast

Advertisements
Track Severe Weather on mobile